createdAt,value
2019-04-29T00:02:12.276Z,94.60
2019-04-29T00:04:41.706Z,95.10
2019-04-29T00:07:10.525Z,94.60
2019-04-29T00:09:38.946Z,95.00
2019-04-29T00:12:07.316Z,94.60
2019-04-29T00:14:37.815Z,95.00
2019-04-29T00:17:19.044Z,95.00
2019-04-29T00:20:07.015Z,95.20
2019-04-29T00:22:35.604Z,95.50
2019-04-29T00:25:04.157Z,95.90
2019-04-29T00:27:34.450Z,95.90
2019-04-29T00:30:04.166Z,96.10
2019-04-29T00:32:34.358Z,96.10
2019-04-29T00:35:03.093Z,96.30
2019-04-29T00:37:46.507Z,96.40
2019-04-29T00:40:39.582Z,96.60
2019-04-29T00:43:15.334Z,96.80
2019-04-29T00:45:44.029Z,97.30
2019-04-29T00:48:12.614Z,97.10
2019-04-29T00:50:42.202Z,97.20
2019-04-29T00:53:11.281Z,96.90
2019-04-29T00:55:39.679Z,97.30
2019-04-29T00:58:09.957Z,97.30
2019-04-29T01:00:40.647Z,97.50
2019-04-29T01:03:09.034Z,97.50
2019-04-29T01:05:37.624Z,97.70
2019-04-29T01:08:06.153Z,98.10
2019-04-29T01:10:34.520Z,97.90
2019-04-29T01:13:03.272Z,98.20
2019-04-29T01:15:32.112Z,98.00
2019-04-29T01:18:00.707Z,98.10
2019-04-29T01:20:29.111Z,98.20
2019-04-29T01:22:57.519Z,98.50
2019-04-29T01:25:26.910Z,98.90
2019-04-29T01:28:01.493Z,99.20
2019-04-29T01:31:21.334Z,98.90
2019-04-29T01:33:56.142Z,99.00
2019-04-29T01:36:34.369Z,99.50
2019-04-29T01:39:06.216Z,99.10
2019-04-29T01:41:41.630Z,99.30
2019-04-29T01:44:10.198Z,99.50
2019-04-29T01:46:38.590Z,99.50
2019-04-29T01:49:07.064Z,99.50
2019-04-29T01:51:35.490Z,99.70
2019-04-29T01:54:04.013Z,99.90
2019-04-29T01:56:32.390Z,99.90
2019-04-29T01:59:00.966Z,99.90
2019-04-29T02:01:29.352Z,99.90
2019-04-29T02:04:01.970Z,99.90
2019-04-29T02:06:30.335Z,99.90
2019-04-29T02:08:58.982Z,99.90
2019-04-29T02:11:27.586Z,99.90
2019-04-29T02:13:56.066Z,99.90
2019-04-29T02:16:24.556Z,99.90
2019-04-29T02:18:53.020Z,99.90
2019-04-29T02:21:21.518Z,99.90
2019-04-29T02:24:01.600Z,99.90
2019-04-29T02:26:30.680Z,99.90
2019-04-29T02:28:59.265Z,99.90
2019-04-29T02:31:44.652Z,99.90
2019-04-29T02:34:17.074Z,99.90
2019-04-29T02:36:46.669Z,99.90
2019-04-29T02:39:23.917Z,99.90
2019-04-29T02:41:59.750Z,99.90
2019-04-29T02:44:28.170Z,99.90
2019-04-29T02:46:58.425Z,99.90
2019-04-29T02:49:26.796Z,99.90
2019-04-29T02:51:56.991Z,99.90
2019-04-29T02:54:27.300Z,99.90
2019-04-29T02:57:16.148Z,99.90
2019-04-29T02:59:48.309Z,99.90
2019-04-29T03:02:36.290Z,99.90
2019-04-29T03:05:11.235Z,99.90
2019-04-29T03:07:39.663Z,99.90
2019-04-29T03:10:08.465Z,99.90
2019-04-29T03:12:36.922Z,99.90
2019-04-29T03:15:05.694Z,99.90
2019-04-29T03:17:34.256Z,99.90
2019-04-29T03:20:11.388Z,99.90
2019-04-29T03:22:40.804Z,99.90
2019-04-29T03:25:11.028Z,99.90
2019-04-29T03:27:39.443Z,99.90
2019-04-29T03:30:08.378Z,99.90
2019-04-29T03:32:37.074Z,99.90
2019-04-29T03:35:06.115Z,99.90
2019-04-29T03:37:34.864Z,99.90
2019-04-29T03:40:04.428Z,99.90
2019-04-29T03:42:32.942Z,99.90
2019-04-29T03:45:01.609Z,99.90
2019-04-29T03:47:30.100Z,99.90
2019-04-29T03:49:58.519Z,99.90
2019-04-29T03:52:27.295Z,99.90
2019-04-29T03:54:55.881Z,99.90
2019-04-29T03:57:24.507Z,99.90
2019-04-29T03:59:56.986Z,99.90
2019-04-29T04:02:31.185Z,99.90
2019-04-29T04:05:19.378Z,99.90
2019-04-29T04:07:57.023Z,99.90
2019-04-29T04:10:26.589Z,99.90
2019-04-29T04:12:55.017Z,99.90
2019-04-29T04:15:25.207Z,99.90
2019-04-29T04:18:05.971Z,99.90
2019-04-29T04:20:34.451Z,99.90
2019-04-29T04:23:03.406Z,99.90
2019-04-29T04:25:32.214Z,99.90
2019-04-29T04:28:02.122Z,99.90
2019-04-29T04:30:30.947Z,99.90
2019-04-29T04:32:59.447Z,99.90
2019-04-29T04:35:29.013Z,99.90
2019-04-29T04:37:58.201Z,99.90
2019-04-29T04:40:37.661Z,99.90
2019-04-29T04:43:07.078Z,99.90
2019-04-29T04:45:37.195Z,99.90
2019-04-29T04:48:07.971Z,99.90
2019-04-29T04:50:36.674Z,99.90
2019-04-29T04:53:06.780Z,99.90
2019-04-29T04:55:37.484Z,99.90
2019-04-29T04:58:07.752Z,99.90
2019-04-29T05:00:37.944Z,99.90
2019-04-29T05:03:06.446Z,99.90
2019-04-29T05:05:35.319Z,99.90
2019-04-29T05:08:04.464Z,99.90
2019-04-29T05:10:33.695Z,99.90
2019-04-29T05:13:03.926Z,99.90
2019-04-29T05:15:32.523Z,99.90
2019-04-29T05:18:01.025Z,99.90
2019-04-29T05:20:29.441Z,99.90
2019-04-29T05:23:01.060Z,99.90
2019-04-29T05:25:31.809Z,99.90
2019-04-29T05:28:02.912Z,99.90
2019-04-29T05:30:32.018Z,99.90
2019-04-29T05:33:00.518Z,99.90
2019-04-29T05:35:56.624Z,99.90
2019-04-29T05:38:28.326Z,99.90
2019-04-29T05:40:57.168Z,99.90
2019-04-29T05:43:34.072Z,99.90
2019-04-29T05:46:23.307Z,99.90
2019-04-29T05:48:52.280Z,99.90
2019-04-29T05:51:32.304Z,99.90
2019-04-29T05:54:01.716Z,99.90
2019-04-29T05:56:30.111Z,99.90
2019-04-29T05:58:58.661Z,99.90
2019-04-29T06:01:29.007Z,99.90
2019-04-29T06:03:58.199Z,99.90
2019-04-29T06:06:26.710Z,99.90
2019-04-29T06:08:55.126Z,99.90
2019-04-29T06:11:23.584Z,99.90
2019-04-29T06:13:52.113Z,99.90
2019-04-29T06:16:21.368Z,99.90
2019-04-29T06:18:59.781Z,99.90
2019-04-29T06:21:21.377Z,99.20
2019-04-29T06:23:54.451Z,99.80
2019-04-29T06:26:21.974Z,98.70
2019-04-29T06:28:50.656Z,99.40
2019-04-29T06:31:19.024Z,98.70
2019-04-29T06:33:47.613Z,98.60
2019-04-29T06:36:15.987Z,97.70
2019-04-29T06:38:45.393Z,97.30
2019-04-29T06:41:13.774Z,97.80
2019-04-29T06:43:42.268Z,98.10
2019-04-29T06:46:12.456Z,96.90
2019-04-29T06:48:41.073Z,96.80
2019-04-29T06:51:09.651Z,96.50
2019-04-29T06:53:38.837Z,97.10
2019-04-29T06:56:09.233Z,96.30
2019-04-29T06:58:38.436Z,96.00
2019-04-29T07:01:08.873Z,96.20
2019-04-29T07:03:37.348Z,95.90
2019-04-29T07:06:05.835Z,96.10
2019-04-29T07:08:34.319Z,95.30
2019-04-29T07:11:03.071Z,96.80
2019-04-29T07:13:32.898Z,95.90
2019-04-29T07:16:01.281Z,96.00
2019-04-29T07:18:29.690Z,96.70
2019-04-29T07:20:58.892Z,96.00
2019-04-29T07:23:27.377Z,95.80
2019-04-29T07:25:55.891Z,94.90
2019-04-29T07:28:24.421Z,95.00
2019-04-29T07:31:02.443Z,95.10
2019-04-29T07:33:24.650Z,94.90
2019-04-29T07:35:53.116Z,95.10
2019-04-29T07:38:22.314Z,95.20
2019-04-29T07:40:50.678Z,94.30
2019-04-29T07:43:19.078Z,94.70
2019-04-29T07:46:03.658Z,94.30
2019-04-29T07:48:37.027Z,94.30
2019-04-29T07:51:05.785Z,94.60
2019-04-29T07:53:42.388Z,94.30
2019-04-29T07:56:06.383Z,94.60
2019-04-29T07:58:35.013Z,94.60
2019-04-29T08:01:03.498Z,95.10
2019-04-29T08:03:31.884Z,94.60
2019-04-29T08:06:01.029Z,95.10
2019-04-29T08:08:31.323Z,95.70
2019-04-29T08:10:59.914Z,95.00
2019-04-29T08:13:28.592Z,94.40
2019-04-29T08:15:58.494Z,94.30
2019-04-29T08:18:27.202Z,94.70
2019-04-29T08:20:56.182Z,94.40
2019-04-29T08:23:24.987Z,95.10
2019-04-29T08:25:57.387Z,95.00
2019-04-29T08:28:25.283Z,95.30
2019-04-29T08:30:53.965Z,95.30
2019-04-29T08:33:22.836Z,94.70
2019-04-29T08:35:53.032Z,94.70
2019-04-29T08:38:21.430Z,94.10
2019-04-29T08:40:51.549Z,94.30
2019-04-29T08:43:42.551Z,94.70
2019-04-29T08:46:14.696Z,94.70
2019-04-29T08:48:45.761Z,94.70
2019-04-29T08:51:13.461Z,95.30
2019-04-29T08:53:41.892Z,95.50
2019-04-29T08:56:12.010Z,95.20
2019-04-29T08:58:44.072Z,94.10
2019-04-29T09:01:12.611Z,94.60
2019-04-29T09:03:41.314Z,93.90
2019-04-29T09:06:09.897Z,93.80
2019-04-29T09:08:53.437Z,94.90
2019-04-29T09:11:13.044Z,94.40
2019-04-29T09:13:39.725Z,94.80
2019-04-29T09:16:08.598Z,94.60
2019-04-29T09:18:37.035Z,94.70
2019-04-29T09:21:05.716Z,94.50
2019-04-29T09:23:36.011Z,94.40
2019-04-29T09:26:24.553Z,94.30
2019-04-29T09:28:53.380Z,94.20
2019-04-29T09:31:21.847Z,94.70
2019-04-29T09:33:52.324Z,95.00
2019-04-29T09:36:20.726Z,94.30
2019-04-29T09:38:49.295Z,94.80
2019-04-29T09:41:24.839Z,95.40
2019-04-29T09:44:10.165Z,95.40
2019-04-29T09:46:38.638Z,94.20
2019-04-29T09:49:07.027Z,95.70
2019-04-29T09:51:35.490Z,94.20
2019-04-29T09:54:04.004Z,95.60
2019-04-29T09:56:34.670Z,95.40
2019-04-29T09:59:24.056Z,95.00
2019-04-29T10:02:01.307Z,94.90
2019-04-29T10:04:55.787Z,94.40
2019-04-29T10:07:14.627Z,93.30
2019-04-29T10:09:56.199Z,93.00
2019-04-29T10:12:13.494Z,93.20
2019-04-29T10:14:41.970Z,93.40
2019-04-29T10:17:20.293Z,93.60
2019-04-29T10:20:10.063Z,93.50
2019-04-29T10:22:38.857Z,92.90
2019-04-29T10:25:09.487Z,94.00
2019-04-29T10:27:37.925Z,94.30
2019-04-29T10:30:07.648Z,94.80
2019-04-29T10:32:42.077Z,94.20
2019-04-29T10:35:10.446Z,94.00
2019-04-29T10:37:39.030Z,94.00
2019-04-29T10:40:21.767Z,94.20
2019-04-29T10:43:31.514Z,93.80
2019-04-29T10:46:22.734Z,93.30
2019-04-29T10:49:05.319Z,94.20
2019-04-29T10:51:34.128Z,92.40
2019-04-29T10:54:02.724Z,92.20
2019-04-29T10:56:31.445Z,93.70
2019-04-29T10:59:00.123Z,94.10
2019-04-29T11:02:34.151Z,92.70
2019-04-29T11:05:26.856Z,92.20
2019-04-29T11:08:02.497Z,92.60
2019-04-29T11:10:29.706Z,91.60
2019-04-29T11:12:58.485Z,91.50
2019-04-29T11:15:32.507Z,91.50
2019-04-29T11:18:03.531Z,93.20
2019-04-29T11:20:33.315Z,92.10
2019-04-29T11:23:16.290Z,91.90
2019-04-29T11:26:01.834Z,91.10
2019-04-29T11:28:32.138Z,91.40
2019-04-29T11:31:00.827Z,91.40
2019-04-29T11:33:40.110Z,91.00
2019-04-29T11:36:10.823Z,91.60
2019-04-29T11:38:39.994Z,91.80
2019-04-29T11:41:12.176Z,91.90
2019-04-29T11:43:39.009Z,92.30
2019-04-29T11:46:09.975Z,93.40
2019-04-29T11:48:38.355Z,93.20
2019-04-29T11:51:20.819Z,92.50
2019-04-29T11:53:49.824Z,92.30
2019-04-29T11:56:18.299Z,92.90
2019-04-29T11:59:15.571Z,93.80
2019-04-29T12:02:06.954Z,94.20
2019-04-29T12:04:42.292Z,92.50
2019-04-29T12:07:11.577Z,92.00
2019-04-29T12:09:41.987Z,91.90
2019-04-29T12:12:14.514Z,93.40
2019-04-29T12:14:49.571Z,92.20
2019-04-29T12:17:40.826Z,92.30
2019-04-29T12:20:18.164Z,92.00
2019-04-29T12:22:48.665Z,92.20
2019-04-29T12:25:17.060Z,92.90
2019-04-29T12:27:52.779Z,91.90
2019-04-29T12:30:19.720Z,91.70
2019-04-29T12:33:01.387Z,91.30
2019-04-29T12:35:33.761Z,91.10
2019-04-29T12:38:19.601Z,90.90
2019-04-29T12:41:20.654Z,91.40
2019-04-29T12:44:14.142Z,91.20
2019-04-29T12:46:45.708Z,91.10
2019-04-29T12:49:14.215Z,90.90
2019-04-29T12:51:44.771Z,91.00
2019-04-29T12:54:13.334Z,91.30
2019-04-29T12:56:46.993Z,90.70
2019-04-29T12:59:12.519Z,91.00
2019-04-29T13:02:09.911Z,91.20
2019-04-29T13:05:09.549Z,91.50
2019-04-29T13:08:03.649Z,91.10
2019-04-29T13:10:42.332Z,90.60
2019-04-29T13:13:10.360Z,90.50
2019-04-29T13:16:10.989Z,91.30
2019-04-29T13:18:55.719Z,91.00
2019-04-29T13:21:26.195Z,90.60
2019-04-29T13:24:12.149Z,90.70
2019-04-29T13:26:28.183Z,90.40
2019-04-29T13:29:01.392Z,90.50
2019-04-29T13:31:38.072Z,91.00
2019-04-29T13:34:09.008Z,90.90
2019-04-29T13:36:31.287Z,91.40
2019-04-29T13:38:59.869Z,92.00
2019-04-29T13:41:28.391Z,92.60
2019-04-29T13:44:03.886Z,91.60
2019-04-29T13:47:05.085Z,90.80
2019-04-29T13:50:17.091Z,91.90
2019-04-29T13:52:29.374Z,92.60
2019-04-29T13:55:16.299Z,91.20
2019-04-29T13:57:29.115Z,91.50
2019-04-29T14:00:19.913Z,92.50
2019-04-29T14:02:59.346Z,92.10
2019-04-29T14:05:28.251Z,93.10
2019-04-29T14:07:57.750Z,92.70
2019-04-29T14:10:26.232Z,93.20
2019-04-29T14:13:09.214Z,93.60
2019-04-29T14:15:25.028Z,92.10
2019-04-29T14:17:53.679Z,92.10
2019-04-29T14:20:22.164Z,92.10
2019-04-29T14:22:50.675Z,93.60
2019-04-29T14:25:19.072Z,93.30
2019-04-29T14:27:48.091Z,91.90
2019-04-29T14:30:20.775Z,91.30
2019-04-29T14:32:52.834Z,90.90
2019-04-29T14:35:48.221Z,92.50
2019-04-29T14:38:15.054Z,91.80
2019-04-29T14:40:44.049Z,91.10
2019-04-29T14:43:28.865Z,90.80
2019-04-29T14:46:18.342Z,90.50
2019-04-29T14:48:51.040Z,91.90
2019-04-29T14:51:21.219Z,90.10
2019-04-29T14:53:56.662Z,91.50
2019-04-29T14:56:20.070Z,92.70
2019-04-29T14:58:48.606Z,90.40
2019-04-29T15:01:31.180Z,91.50
2019-04-29T15:04:01.474Z,91.50
2019-04-29T15:06:29.969Z,90.20
2019-04-29T15:09:16.847Z,90.40
2019-04-29T15:12:09.895Z,91.60
2019-04-29T15:14:58.938Z,90.70
2019-04-29T15:17:34.709Z,92.10
2019-04-29T15:20:20.597Z,92.10
2019-04-29T15:22:49.035Z,92.80
2019-04-29T15:25:20.952Z,91.60
2019-04-29T15:27:48.064Z,91.50
2019-04-29T15:30:17.261Z,92.20
2019-04-29T15:32:45.635Z,92.30
2019-04-29T15:35:19.834Z,92.10
2019-04-29T15:37:46.218Z,91.30
2019-04-29T15:40:14.842Z,90.90
2019-04-29T15:42:48.598Z,91.30
2019-04-29T15:45:13.709Z,92.20
2019-04-29T15:47:45.709Z,92.40
2019-04-29T15:50:18.868Z,90.60
2019-04-29T15:52:43.897Z,91.20
2019-04-29T15:55:12.774Z,90.70
2019-04-29T15:57:49.583Z,91.40
2019-04-29T16:00:21.961Z,91.70
2019-04-29T16:02:44.627Z,91.20
2019-04-29T16:05:26.641Z,91.50
2019-04-29T16:08:13.776Z,91.40
2019-04-29T16:11:03.136Z,92.40
2019-04-29T16:13:31.680Z,92.10
2019-04-29T16:16:00.203Z,92.00
2019-04-29T16:18:28.724Z,91.80
2019-04-29T16:20:57.106Z,92.00
2019-04-29T16:23:25.484Z,91.10
2019-04-29T16:25:54.522Z,90.00
2019-04-29T16:28:24.265Z,90.40
2019-04-29T16:30:53.631Z,91.90
2019-04-29T16:33:22.109Z,91.80
2019-04-29T16:35:50.624Z,91.80
2019-04-29T16:38:19.177Z,91.10
2019-04-29T16:40:57.198Z,91.20
2019-04-29T16:43:34.589Z,90.70
2019-04-29T16:46:13.881Z,90.60
2019-04-29T16:48:44.100Z,90.50
2019-04-29T16:51:17.345Z,90.90
2019-04-29T16:53:46.003Z,92.10
2019-04-29T16:56:16.366Z,91.10
2019-04-29T16:58:45.038Z,91.80
2019-04-29T17:01:15.412Z,91.40
2019-04-29T17:03:43.833Z,90.80
2019-04-29T17:06:14.054Z,90.30
2019-04-29T17:09:05.030Z,90.90
2019-04-29T17:11:33.891Z,91.10
2019-04-29T17:14:03.527Z,91.60
2019-04-29T17:16:32.782Z,91.10
2019-04-29T17:19:01.548Z,90.20
2019-04-29T17:21:30.031Z,91.20
2019-04-29T17:23:58.966Z,90.60
2019-04-29T17:26:39.311Z,90.70
2019-04-29T17:29:48.916Z,91.20
2019-04-29T17:32:42.086Z,90.30
2019-04-29T17:35:01.820Z,90.70
2019-04-29T17:37:32.229Z,90.80
2019-04-29T17:40:02.709Z,91.00
2019-04-29T17:42:33.177Z,90.30
2019-04-29T17:45:10.496Z,90.50
2019-04-29T17:47:47.233Z,90.80
2019-04-29T17:50:30.155Z,90.60
2019-04-29T17:52:51.430Z,90.40
2019-04-29T17:55:51.485Z,91.00
2019-04-29T17:58:25.898Z,90.90
2019-04-29T18:01:20.713Z,91.80
2019-04-29T18:04:07.783Z,91.90
2019-04-29T18:06:58.699Z,91.80
2019-04-29T18:09:41.638Z,91.50
2019-04-29T18:12:15.695Z,92.70
2019-04-29T18:14:44.774Z,91.80
2019-04-29T18:17:24.143Z,91.80
2019-04-29T18:20:32.174Z,91.20
2019-04-29T18:23:11.065Z,91.00
2019-04-29T18:25:56.223Z,92.10
2019-04-29T18:28:25.169Z,91.10
2019-04-29T18:30:57.721Z,91.50
2019-04-29T18:33:29.898Z,92.30
2019-04-29T18:36:03.807Z,91.90
2019-04-29T18:38:26.958Z,90.90
2019-04-29T18:40:55.992Z,91.40
2019-04-29T18:43:26.502Z,91.30
2019-04-29T18:45:59.006Z,92.40
2019-04-29T18:48:27.206Z,92.70
2019-04-29T18:50:57.105Z,93.00
2019-04-29T18:53:25.905Z,93.00
2019-04-29T18:55:56.166Z,92.20
2019-04-29T18:58:25.097Z,92.60
2019-04-29T19:00:56.316Z,92.60
2019-04-29T19:03:55.626Z,93.10
2019-04-29T19:06:25.909Z,92.90
2019-04-29T19:09:01.270Z,92.70
2019-04-29T19:11:30.587Z,93.00
2019-04-29T19:13:55.376Z,93.70
2019-04-29T19:16:27.332Z,93.50
2019-04-29T19:18:57.737Z,91.70
2019-04-29T19:21:30.413Z,91.90
2019-04-29T19:23:57.415Z,92.90
2019-04-29T19:26:27.404Z,92.60
2019-04-29T19:28:56.819Z,92.80
2019-04-29T19:31:25.482Z,93.60
2019-04-29T19:33:55.095Z,92.50
2019-04-29T19:36:24.341Z,92.20
2019-04-29T19:38:52.867Z,92.00
2019-04-29T19:41:21.830Z,91.60
2019-04-29T19:43:55.111Z,91.80
2019-04-29T19:46:24.157Z,92.50
2019-04-29T19:48:51.168Z,92.70
2019-04-29T19:51:22.934Z,93.30
2019-04-29T19:53:49.919Z,93.80
2019-04-29T19:56:23.097Z,94.40
2019-04-29T19:58:50.791Z,93.70
2019-04-29T20:01:29.673Z,94.10
2019-04-29T20:04:22.183Z,93.40
2019-04-29T20:06:48.395Z,92.50
2019-04-29T20:09:22.610Z,93.30
2019-04-29T20:11:50.714Z,93.50
2019-04-29T20:14:26.302Z,93.50
2019-04-29T20:17:17.502Z,93.50
2019-04-29T20:19:58.692Z,93.80
2019-04-29T20:22:23.168Z,94.10
2019-04-29T20:24:51.734Z,94.20
2019-04-29T20:27:21.126Z,93.00
2019-04-29T20:29:50.091Z,93.60
2019-04-29T20:32:22.458Z,93.80
2019-04-29T20:34:51.614Z,94.10
2019-04-29T20:37:20.308Z,94.60
2019-04-29T20:39:51.966Z,94.70
2019-04-29T20:42:20.040Z,95.00
2019-04-29T20:44:49.490Z,95.60
2019-04-29T20:47:23.077Z,95.70
2019-04-29T20:49:48.415Z,94.60
2019-04-29T20:52:36.201Z,94.40
2019-04-29T20:55:08.708Z,94.70
2019-04-29T20:57:36.581Z,95.40
2019-04-29T21:00:06.619Z,96.20
2019-04-29T21:02:37.590Z,96.40
2019-04-29T21:05:09.404Z,96.40
2019-04-29T21:07:36.802Z,93.20
2019-04-29T21:10:08.518Z,93.90
2019-04-29T21:12:49.542Z,94.30
2019-04-29T21:15:27.319Z,93.30
2019-04-29T21:17:58.541Z,94.20
2019-04-29T21:20:26.433Z,95.20
2019-04-29T21:22:59.365Z,95.70
2019-04-29T21:25:29.366Z,95.90
2019-04-29T21:27:58.147Z,95.70
2019-04-29T21:30:35.452Z,94.80
2019-04-29T21:32:58.099Z,95.00
2019-04-29T21:35:45.508Z,94.40
2019-04-29T21:38:35.229Z,93.70
2019-04-29T21:41:08.432Z,94.60
2019-04-29T21:43:39.034Z,94.70
2019-04-29T21:46:07.498Z,94.70
2019-04-29T21:48:37.395Z,94.50
2019-04-29T21:51:06.746Z,95.00
2019-04-29T21:53:40.171Z,95.10
2019-04-29T21:56:09.481Z,94.10
2019-04-29T21:58:37.003Z,94.70
2019-04-29T22:01:07.803Z,95.00
2019-04-29T22:03:36.279Z,94.70
2019-04-29T22:06:04.861Z,94.40
2019-04-29T22:08:35.354Z,94.90
2019-04-29T22:11:07.020Z,94.50
2019-04-29T22:13:39.099Z,94.00
2019-04-29T22:16:06.131Z,94.60
2019-04-29T22:18:35.559Z,94.10
2019-04-29T22:21:06.550Z,93.70
2019-04-29T22:23:35.267Z,94.00
2019-04-29T22:26:05.070Z,94.00
2019-04-29T22:28:35.092Z,94.00
2019-04-29T22:31:07.728Z,94.00
2019-04-29T22:33:38.718Z,93.30
2019-04-29T22:36:10.245Z,94.20
2019-04-29T22:38:37.402Z,94.20
2019-04-29T22:41:11.987Z,93.60
2019-04-29T22:43:51.079Z,92.30
2019-04-29T22:46:19.749Z,93.10
2019-04-29T22:48:48.860Z,93.10
2019-04-29T22:51:19.022Z,92.90
2019-04-29T22:53:48.338Z,93.60
2019-04-29T22:56:17.523Z,93.50
2019-04-29T22:58:47.419Z,93.70
2019-04-29T23:01:17.858Z,93.00
2019-04-29T23:03:47.302Z,92.70
2019-04-29T23:06:15.797Z,92.40
2019-04-29T23:08:45.110Z,92.50
2019-04-29T23:11:13.524Z,92.20
2019-04-29T23:13:42.009Z,92.20
2019-04-29T23:16:10.378Z,92.80
2019-04-29T23:18:42.207Z,92.90
2019-04-29T23:21:29.083Z,92.40
2019-04-29T23:24:17.526Z,92.10
2019-04-29T23:26:46.272Z,92.20
2019-04-29T23:29:15.591Z,92.40
2019-04-29T23:31:45.362Z,92.60
2019-04-29T23:34:15.553Z,92.50
2019-04-29T23:36:44.627Z,93.40
2019-04-29T23:39:14.972Z,93.20
2019-04-29T23:41:45.141Z,93.20
2019-04-29T23:44:13.630Z,93.20
2019-04-29T23:46:42.012Z,92.70
2019-04-29T23:49:10.467Z,92.10
2019-04-29T23:51:38.843Z,91.70
2019-04-29T23:54:07.871Z,92.20
2019-04-29T23:56:50.567Z,92.60
2019-04-29T23:59:25.116Z,93.10
